aviador You're here:

PABI Decoded Metar

DELTA JUNCTION in AK, USA
Report Time2018-02-25 10:53:00
UTC Time2018-02-25 11:38:29
Flight Rules mvfr MVFR
Wind280° at 05 kt
W.Decomp.*RWY 25: 5.0 kt HW 0.6 kt RCW
RWY 28: 4.6 kt HW 2 kt LCW
RWY 19: 2.0 kt HW 4.6 kt RCW
W.Rank280° ranks 8
Current wind is below 280° avg. (6.3)
Visibility4828 m
Phenomena:Light Snow
Mist
Clouds:Overcast 017 Hf
Expected CloudBase > 400 ft AGL from Temp-Dew spread
Ceiling1,700 ft
Temp-13°C (ISA -25)
Dew Point-14°C (92% RH)
AAT-18.1°C
QNH1005 hPa
Density Alt-1,621 ft
Elevation1,266 ft
Report Wrong Elevation
Raw Report
PABI 251053Z AUTO 28005KT 3SM -SN BR OVC017 M13/M14 A2969=

Extra information for PABI:More info

Metar Taf Metar & Taf Last 4 Metars F.Rules Stats Wind Profile Meteogram Temp Stats Airport Information Weather charts Add Link Nearby VenuesMetar ALERT Operation Metar Decoded Social comments

AIRNAV info for PABI